Time;durP1;ratioP1;P1;durP2;ratioP2;P2;SDS_P1;SDS_P2;PMS_P1;PMS_P2;Temp;Humidity;BMP_temperature;BMP_pressure;BME280_temperature;BME280_humidity;BME280_pressure;Samples;Min_cycle;Max_cycle;Signal;HPM_P1;HPM_P2
2022/04/08 00:02:09;;;;;;;5.60;2.10;;;;;;;;;;4955485;29;20281;-76
2022/04/08 00:04:35;;;;;;;4.50;2.25;;;;;;;;;;4956994;28;20411;-74
2022/04/08 00:07:01;;;;;;;2.92;1.80;;;;;;;;;;4956582;28;20195;-76
2022/04/08 00:09:27;;;;;;;7.72;2.78;;;;;;;;;;4955606;28;20716;-76
2022/04/08 00:11:55;;;;;;;3.58;2.00;;;;;;;;;;4956599;28;20274;-76
2022/04/08 00:14:21;;;;;;;4.80;2.13;;;;;;;;;;4955707;28;20173;-76
2022/04/08 00:16:47;;;;;;;3.77;1.90;;;;;;;;;;4956437;28;20195;-76
2022/04/08 00:19:13;;;;;;;6.13;1.70;;;;;;;;;;4956823;28;20407;-74
2022/04/08 00:21:39;;;;;;;5.57;1.97;;;;;;;;;;4956355;28;20238;-77
2022/04/08 00:24:05;;;;;;;3.37;1.80;;;;;;;;;;4957134;28;20426;-77
2022/04/08 00:26:31;;;;;;;5.72;1.92;;;;;;;;;;4956627;28;20431;-75
2022/04/08 00:28:57;;;;;;;3.55;1.73;;;;;;;;;;4956312;28;20288;-78
2022/04/08 00:31:23;;;;;;;4.53;2.30;;;;;;;;;;4956223;28;20199;-74
2022/04/08 00:33:49;;;;;;;10.93;1.80;;;;;;;;;;4956657;28;20353;-75
2022/04/08 00:36:15;;;;;;;4.97;2.03;;;;;;;;;;4956041;28;20517;-76
2022/04/08 00:38:41;;;;;;;4.03;2.03;;;;;;;;;;4955933;28;20440;-75
2022/04/08 00:41:07;;;;;;;2.40;2.10;;;;;;;;;;4955906;28;20434;-75
2022/04/08 00:43:34;;;;;;;3.03;2.10;;;;;;;;;;4956418;28;20426;-76
2022/04/08 00:46:00;;;;;;;3.92;2.15;;;;;;;;;;4955264;28;20793;-76
2022/04/08 00:48:26;;;;;;;3.70;2.20;;;;;;;;;;4956210;28;20261;-74
2022/04/08 00:50:52;;;;;;;6.63;2.10;;;;;;;;;;4955758;28;20275;-76
2022/04/08 00:53:18;;;;;;;2.90;2.65;;;;;;;;;;4956312;28;20192;-75
2022/04/08 00:55:44;;;;;;;7.23;3.10;;;;;;;;;;4955905;28;20171;-76
2022/04/08 00:58:10;;;;;;;4.07;3.00;;;;;;;;;;4956117;28;20411;-74
2022/04/08 01:00:37;;;;;;;5.80;2.40;;;;;;;;;;4955581;28;20473;-75
2022/04/08 01:03:05;;;;;;;5.25;3.78;;;;;;;;;;4955797;28;20263;-77
2022/04/08 01:05:31;;;;;;;6.82;3.38;;;;;;;;;;4955697;28;20178;-77
2022/04/08 01:07:57;;;;;;;4.57;2.75;;;;;;;;;;4954166;28;20203;-74
2022/04/08 01:10:23;;;;;;;2.10;1.70;;;;;;;;;;4955545;28;20191;-74
2022/04/08 01:12:49;;;;;;;3.83;1.90;;;;;;;;;;4955714;28;20823;-73
2022/04/08 01:15:19;;;;;;;8.10;2.50;;;;;;;;;;4955675;28;20638;-77
2022/04/08 01:17:45;;;;;;;6.80;2.95;;;;;;;;;;4955444;28;20250;-74
2022/04/08 01:20:12;;;;;;;7.70;2.28;;;;;;;;;;4955268;28;20187;-74
2022/04/08 01:22:38;;;;;;;4.18;2.35;;;;;;;;;;4955471;28;20595;-73
2022/04/08 01:25:04;;;;;;;3.70;2.37;;;;;;;;;;4955258;28;20195;-75
2022/04/08 01:27:31;;;;;;;2.90;2.58;;;;;;;;;;4955230;28;20432;-75
2022/04/08 01:29:57;;;;;;;7.88;2.70;;;;;;;;;;4955152;28;20185;-75
2022/04/08 01:32:23;;;;;;;10.45;2.38;;;;;;;;;;4953831;28;20207;-77
2022/04/08 01:34:50;;;;;;;3.25;2.13;;;;;;;;;;4955322;28;20203;-77
2022/04/08 01:37:16;;;;;;;2.53;2.33;;;;;;;;;;4955030;28;20180;-76
2022/04/08 01:39:42;;;;;;;6.57;2.47;;;;;;;;;;4955564;28;20190;-75
2022/04/08 01:42:08;;;;;;;4.23;2.23;;;;;;;;;;4955132;28;20202;-74
2022/04/08 01:44:38;;;;;;;5.18;2.38;;;;;;;;;;4955409;28;20774;-76
2022/04/08 01:47:05;;;;;;;2.40;1.48;;;;;;;;;;4955096;28;20257;-77
2022/04/08 01:49:31;;;;;;;9.00;2.70;;;;;;;;;;4955212;28;20212;-75
2022/04/08 01:51:57;;;;;;;13.23;3.20;;;;;;;;;;4954746;28;20350;-75
2022/04/08 01:54:23;;;;;;;4.63;3.15;;;;;;;;;;4955215;28;20192;-76
2022/04/08 01:56:49;;;;;;;7.27;3.27;;;;;;;;;;4954739;28;20187;-74
2022/04/08 01:59:15;;;;;;;3.63;2.38;;;;;;;;;;4953507;28;20416;-76
2022/04/08 02:01:41;;;;;;;4.38;2.90;;;;;;;;;;4954921;28;20208;-75
2022/04/08 02:04:08;;;;;;;7.07;3.25;;;;;;;;;;4955209;28;20542;-74
2022/04/08 02:06:36;;;;;;;6.03;2.75;;;;;;;;;;4955027;28;20187;-76
2022/04/08 02:09:02;;;;;;;4.90;3.55;;;;;;;;;;4954866;28;20204;-75
2022/04/08 02:11:28;;;;;;;10.98;3.63;;;;;;;;;;4954619;28;20207;-75
2022/04/08 02:13:54;;;;;;;5.60;3.40;;;;;;;;;;4955024;28;20271;-76
2022/04/08 02:16:20;;;;;;;8.57;3.50;;;;;;;;;;4954740;28;20900;-75
2022/04/08 02:18:46;;;;;;;5.23;3.53;;;;;;;;;;4955067;28;20423;-78
2022/04/08 02:21:15;;;;;;;5.73;3.37;;;;;;;;;;4954512;28;20537;-74
2022/04/08 02:23:44;;;;;;;6.38;3.50;;;;;;;;;;4954818;28;20426;-73
2022/04/08 02:26:13;;;;;;;6.23;3.60;;;;;;;;;;4954803;28;20188;-75
2022/04/08 02:28:39;;;;;;;9.48;4.13;;;;;;;;;;4953562;29;20489;-77
2022/04/08 02:31:05;;;;;;;6.73;3.83;;;;;;;;;;4954575;28;20212;-75
2022/04/08 02:33:31;;;;;;;8.50;3.90;;;;;;;;;;4954803;28;20416;-76
2022/04/08 02:35:57;;;;;;;9.98;4.97;;;;;;;;;;4954576;28;20195;-76
2022/04/08 02:38:23;;;;;;;8.17;5.90;;;;;;;;;;4953638;28;20207;-76
2022/04/08 02:40:49;;;;;;;9.55;5.13;;;;;;;;;;4954363;28;20515;-77
2022/04/08 02:43:15;;;;;;;7.87;5.60;;;;;;;;;;4954795;28;20274;-77
2022/04/08 02:45:41;;;;;;;10.10;5.50;;;;;;;;;;4954340;28;20425;-77
2022/04/08 02:48:07;;;;;;;11.60;5.53;;;;;;;;;;4954101;28;20979;-75
2022/04/08 02:50:33;;;;;;;4.93;4.43;;;;;;;;;;4954382;28;20483;-74
2022/04/08 02:52:59;;;;;;;8.00;6.03;;;;;;;;;;4954534;28;20221;-75
2022/04/08 02:55:25;;;;;;;11.65;5.32;;;;;;;;;;4954682;28;20411;-76
2022/04/08 02:57:51;;;;;;;7.97;5.60;;;;;;;;;;4954261;28;20212;-75
2022/04/08 03:00:18;;;;;;;12.77;5.80;;;;;;;;;;4954549;28;20183;-76
2022/04/08 03:02:44;;;;;;;9.90;5.95;;;;;;;;;;4954424;28;20428;-77
2022/04/08 03:05:10;;;;;;;6.57;5.25;;;;;;;;;;4954620;28;20263;-76
2022/04/08 03:07:36;;;;;;;12.07;5.82;;;;;;;;;;4954334;28;20196;-76
2022/04/08 03:10:03;;;;;;;10.25;6.47;;;;;;;;;;4956827;28;20184;-75
2022/04/08 03:12:29;;;;;;;7.40;5.55;;;;;;;;;;4956340;28;20583;-78
2022/04/08 03:14:59;;;;;;;9.88;6.35;;;;;;;;;;4957912;28;20183;-75
2022/04/08 03:17:25;;;;;;;10.35;6.10;;;;;;;;;;4956328;28;20181;-77
2022/04/08 03:19:51;;;;;;;11.18;6.07;;;;;;;;;;4956449;28;20203;-74
2022/04/08 03:22:19;;;;;;;6.45;4.80;;;;;;;;;;4957265;28;20216;-75
2022/04/08 03:24:46;;;;;;;10.25;5.65;;;;;;;;;;4957619;28;20212;-74
2022/04/08 03:27:12;;;;;;;9.95;6.05;;;;;;;;;;4957507;28;20663;-75
2022/04/08 03:29:38;;;;;;;8.23;5.68;;;;;;;;;;4957699;28;20219;-76
2022/04/08 03:32:05;;;;;;;6.75;5.03;;;;;;;;;;4957126;28;20206;-74
2022/04/08 03:34:31;;;;;;;5.95;4.88;;;;;;;;;;4957462;28;20250;-78
2022/04/08 03:36:57;;;;;;;8.88;5.22;;;;;;;;;;4957093;28;20181;-76
2022/04/08 03:39:23;;;;;;;7.47;5.25;;;;;;;;;;4957377;28;20188;-76
2022/04/08 03:41:50;;;;;;;9.73;5.40;;;;;;;;;;4956984;28;20673;-76
2022/04/08 03:44:16;;;;;;;10.60;6.13;;;;;;;;;;4957564;28;20198;-75
2022/04/08 03:46:43;;;;;;;9.65;5.90;;;;;;;;;;4955512;28;20639;-77
2022/04/08 03:49:14;;;;;;;5.63;5.00;;;;;;;;;;4957143;28;20238;-77
2022/04/08 03:51:46;;;;;;;8.40;5.85;;;;;;;;;;4956849;28;20253;-76
2022/04/08 03:54:13;;;;;;;9.15;6.03;;;;;;;;;;4957203;28;20180;-75
2022/04/08 03:56:43;;;;;;;8.10;5.10;;;;;;;;;;4956889;28;20195;-77
2022/04/08 03:59:09;;;;;;;9.40;5.80;;;;;;;;;;4957151;28;20184;-79
2022/04/08 04:01:35;;;;;;;7.17;4.90;;;;;;;;;;4956552;28;20277;-78
2022/04/08 04:04:01;;;;;;;7.30;4.47;;;;;;;;;;4956782;28;20427;-76
2022/04/08 04:06:27;;;;;;;8.65;5.57;;;;;;;;;;4956641;28;20180;-75
2022/04/08 04:08:54;;;;;;;9.30;5.00;;;;;;;;;;4956794;28;20269;-75
2022/04/08 04:11:20;;;;;;;16.75;5.28;;;;;;;;;;4956584;28;20451;-75
2022/04/08 04:13:46;;;;;;;7.73;4.80;;;;;;;;;;4956720;28;20183;-76
2022/04/08 04:16:12;;;;;;;7.25;5.50;;;;;;;;;;4956218;28;20409;-77
2022/04/08 04:18:38;;;;;;;9.38;4.85;;;;;;;;;;4956530;28;20188;-77
2022/04/08 04:21:05;;;;;;;10.13;5.32;;;;;;;;;;4954015;28;20207;-75
2022/04/08 04:23:34;;;;;;;6.45;4.95;;;;;;;;;;4956522;28;20183;-77
2022/04/08 04:26:00;;;;;;;9.07;4.95;;;;;;;;;;4956253;28;20211;-77
2022/04/08 04:28:30;;;;;;;11.38;5.07;;;;;;;;;;4956622;28;20226;-77
2022/04/08 04:30:59;;;;;;;9.55;5.47;;;;;;;;;;4956671;28;20179;-76
2022/04/08 04:33:25;;;;;;;9.07;5.32;;;;;;;;;;4956944;28;20175;-76
2022/04/08 04:35:51;;;;;;;11.53;5.97;;;;;;;;;;4955100;29;20541;-76
2022/04/08 04:38:17;;;;;;;12.43;5.70;;;;;;;;;;4955555;28;20445;-76
2022/04/08 04:40:43;;;;;;;10.13;5.33;;;;;;;;;;4956251;28;20428;-74
2022/04/08 04:43:09;;;;;;;8.87;5.53;;;;;;;;;;4956811;28;20426;-76
2022/04/08 04:45:37;;;;;;;10.40;5.70;;;;;;;;;;4955146;29;20426;-78
2022/04/08 04:48:04;;;;;;;9.13;5.45;;;;;;;;;;4956379;29;20465;-74
2022/04/08 04:50:30;;;;;;;12.63;5.88;;;;;;;;;;4956531;28;20326;-77
2022/04/08 04:52:56;;;;;;;9.20;6.10;;;;;;;;;;4955438;28;20226;-77
2022/04/08 04:55:22;;;;;;;6.88;6.03;;;;;;;;;;4956917;28;20187;-75
2022/04/08 04:57:47;;;;;;;8.15;4.93;;;;;;;;;;4956621;28;20222;-74
2022/04/08 05:00:16;;;;;;;9.17;4.97;;;;;;;;;;4956536;28;20633;-76
2022/04/08 05:02:42;;;;;;;7.60;6.10;;;;;;;;;;4956292;28;20429;-75
2022/04/08 05:05:08;;;;;;;12.40;6.32;;;;;;;;;;4955308;28;20254;-74
2022/04/08 05:07:34;;;;;;;10.05;5.00;;;;;;;;;;4955735;28;20215;-76
2022/04/08 05:10:01;;;;;;;10.02;5.10;;;;;;;;;;4954584;28;20238;-76
2022/04/08 05:12:27;;;;;;;10.23;5.30;;;;;;;;;;4955596;28;20212;-76
2022/04/08 05:14:53;;;;;;;6.00;4.60;;;;;;;;;;4956096;28;20191;-76
2022/04/08 05:17:19;;;;;;;8.33;4.90;;;;;;;;;;4955744;28;20435;-77
2022/04/08 05:19:45;;;;;;;7.13;4.07;;;;;;;;;;4954758;28;20936;-76
2022/04/08 05:22:11;;;;;;;5.53;4.60;;;;;;;;;;4955658;28;20446;-75
2022/04/08 05:24:37;;;;;;;6.82;5.47;;;;;;;;;;4955872;28;20422;-78
2022/04/08 05:27:03;;;;;;;5.00;3.93;;;;;;;;;;4955662;28;20674;-78
2022/04/08 05:29:29;;;;;;;6.57;4.68;;;;;;;;;;4955762;28;20478;-77
2022/04/08 05:31:56;;;;;;;7.40;4.68;;;;;;;;;;4954046;28;20208;-76
2022/04/08 05:34:22;;;;;;;12.15;4.50;;;;;;;;;;4956116;28;20270;-77
2022/04/08 05:36:48;;;;;;;6.33;4.13;;;;;;;;;;4955690;28;20276;-74
2022/04/08 05:39:14;;;;;;;7.88;4.90;;;;;;;;;;4954535;28;20438;-75
2022/04/08 05:41:40;;;;;;;10.20;5.13;;;;;;;;;;4954337;28;20211;-75
2022/04/08 05:44:06;;;;;;;6.70;4.40;;;;;;;;;;4955846;28;20451;-76
2022/04/08 05:46:32;;;;;;;6.97;3.78;;;;;;;;;;4955992;28;20429;-76
2022/04/08 05:48:58;;;;;;;8.05;4.63;;;;;;;;;;4955872;28;20235;-75
2022/04/08 05:51:24;;;;;;;9.70;4.77;;;;;;;;;;4955455;28;20604;-74
2022/04/08 05:53:50;;;;;;;6.00;4.07;;;;;;;;;;4954622;28;20423;-76
2022/04/08 05:56:16;;;;;;;10.33;3.83;;;;;;;;;;4955386;28;20435;-74
2022/04/08 05:58:42;;;;;;;9.10;4.15;;;;;;;;;;4955497;28;20844;-75
2022/04/08 06:01:08;;;;;;;5.88;4.25;;;;;;;;;;4952384;28;20254;-77
2022/04/08 06:03:34;;;;;;;6.95;4.10;;;;;;;;;;4955621;28;20180;-75
2022/04/08 06:06:00;;;;;;;5.13;3.72;;;;;;;;;;4955252;28;20184;-76
2022/04/08 06:08:26;;;;;;;4.93;4.43;;;;;;;;;;4937976;28;20212;-76
2022/04/08 06:10:52;;;;;;;4.40;3.58;;;;;;;;;;4955189;28;20728;-76
2022/04/08 06:13:24;;;;;;;5.80;3.50;;;;;;;;;;4955208;28;20314;-75
2022/04/08 06:15:50;;;;;;;9.57;4.78;;;;;;;;;;4955201;28;20447;-75
2022/04/08 06:18:17;;;;;;;11.13;4.47;;;;;;;;;;4954982;28;20673;-75
2022/04/08 06:20:44;;;;;;;5.93;3.40;;;;;;;;;;4954738;28;20428;-77
2022/04/08 06:23:10;;;;;;;6.72;3.97;;;;;;;;;;4953905;28;20190;-77
2022/04/08 06:25:36;;;;;;;3.90;3.50;;;;;;;;;;4955393;28;20275;-76
2022/04/08 06:28:04;;;;;;;6.93;3.60;;;;;;;;;;4955465;28;20472;-76
2022/04/08 06:30:34;;;;;;;3.67;3.30;;;;;;;;;;4955078;28;20459;-76
2022/04/08 06:33:00;;;;;;;5.57;3.53;;;;;;;;;;4954637;28;20198;-76
2022/04/08 06:35:26;;;;;;;7.30;4.10;;;;;;;;;;4955082;28;20195;-77
2022/04/08 06:37:58;;;;;;;7.03;3.90;;;;;;;;;;4955482;28;20198;-78
2022/04/08 06:40:24;;;;;;;5.65;3.50;;;;;;;;;;4955202;28;20177;-76
2022/04/08 06:42:55;;;;;;;3.90;3.33;;;;;;;;;;4938106;28;20200;-78
2022/04/08 06:45:23;;;;;;;8.60;3.75;;;;;;;;;;4958125;28;20423;-77
2022/04/08 06:47:49;;;;;;;3.60;3.30;;;;;;;;;;4958688;28;20206;-75
2022/04/08 06:50:16;;;;;;;7.47;4.05;;;;;;;;;;4957172;28;20557;-75
2022/04/08 06:52:42;;;;;;;5.38;3.10;;;;;;;;;;4958796;28;20259;-78
2022/04/08 06:55:09;;;;;;;9.02;2.90;;;;;;;;;;4957877;28;20207;-77
2022/04/08 06:57:35;;;;;;;3.88;3.47;;;;;;;;;;4958871;28;20247;-76
2022/04/08 07:03:07;;;;;;;7.22;3.38;;;;;;;;;;4954218;28;20255;-76
2022/04/08 07:05:33;;;;;;;4.87;3.43;;;;;;;;;;4957348;28;20185;-74
2022/04/08 07:07:59;;;;;;;8.17;4.20;;;;;;;;;;4942419;29;20479;-75
2022/04/08 07:10:25;;;;;;;8.25;4.05;;;;;;;;;;4957086;28;20456;-76
2022/04/08 07:12:51;;;;;;;7.32;3.60;;;;;;;;;;4956690;28;20200;-75
2022/04/08 07:15:17;;;;;;;4.22;3.40;;;;;;;;;;4958180;28;20181;-76
2022/04/08 07:17:43;;;;;;;4.60;3.22;;;;;;;;;;4957732;28;20545;-77
2022/04/08 07:20:10;;;;;;;7.72;3.60;;;;;;;;;;4956033;28;20189;-76
2022/04/08 07:22:36;;;;;;;8.45;3.80;;;;;;;;;;4957290;28;20200;-74
2022/04/08 07:25:02;;;;;;;5.47;3.53;;;;;;;;;;4956306;28;20188;-75
2022/04/08 07:27:28;;;;;;;5.93;3.20;;;;;;;;;;4957381;28;20419;-78
2022/04/08 07:29:54;;;;;;;3.55;3.25;;;;;;;;;;4956119;28;20605;-76
2022/04/08 07:32:20;;;;;;;4.53;3.47;;;;;;;;;;4955727;28;20204;-77
2022/04/08 07:34:53;;;;;;;4.95;3.72;;;;;;;;;;4940264;29;20421;-75
2022/04/08 07:37:28;;;;;;;4.07;3.03;;;;;;;;;;4956633;28;20268;-75
2022/04/08 07:39:55;;;;;;;4.30;3.90;;;;;;;;;;4957413;28;20549;-75
2022/04/08 07:42:21;;;;;;;5.38;3.80;;;;;;;;;;4956730;28;20204;-75
2022/04/08 07:44:47;;;;;;;9.35;3.38;;;;;;;;;;4957238;28;20521;-75
2022/04/08 07:47:13;;;;;;;6.97;3.47;;;;;;;;;;4957098;28;20212;-75
2022/04/08 07:49:39;;;;;;;4.07;3.70;;;;;;;;;;4956953;28;20465;-76
2022/04/08 07:52:05;;;;;;;4.82;3.03;;;;;;;;;;4956616;28;20244;-76
2022/04/08 07:54:31;;;;;;;4.25;2.95;;;;;;;;;;4957157;28;20638;-75
2022/04/08 07:56:57;;;;;;;10.40;3.87;;;;;;;;;;4957598;28;20384;-76
2022/04/08 07:59:23;;;;;;;5.17;3.17;;;;;;;;;;4957030;28;20420;-76
2022/04/08 08:01:49;;;;;;;4.40;3.27;;;;;;;;;;4956378;28;21019;-75
2022/04/08 08:04:15;;;;;;;4.72;2.90;;;;;;;;;;4957029;28;20426;-76
2022/04/08 08:06:41;;;;;;;7.70;3.40;;;;;;;;;;4957030;28;20180;-77
2022/04/08 08:09:07;;;;;;;3.40;3.10;;;;;;;;;;4956910;28;20193;-76
2022/04/08 08:11:33;;;;;;;6.97;2.90;;;;;;;;;;4956547;28;20539;-76
2022/04/08 08:13:59;;;;;;;8.97;3.63;;;;;;;;;;4956468;28;20424;-76
2022/04/08 08:16:25;;;;;;;9.35;3.38;;;;;;;;;;4956832;28;20823;-75
2022/04/08 08:18:56;;;;;;;5.53;3.78;;;;;;;;;;4956818;28;20181;-76
2022/04/08 08:21:22;;;;;;;5.60;3.28;;;;;;;;;;4956214;28;20200;-75
2022/04/08 08:23:48;;;;;;;5.53;3.88;;;;;;;;;;4956447;28;20592;-75
2022/04/08 08:26:14;;;;;;;6.07;4.10;;;;;;;;;;4956423;28;20192;-76
2022/04/08 08:28:40;;;;;;;10.60;3.70;;;;;;;;;;4956510;28;20817;-76
2022/04/08 08:31:07;;;;;;;6.60;4.17;;;;;;;;;;4956068;28;20515;-76
2022/04/08 08:33:33;;;;;;;6.53;3.85;;;;;;;;;;4956329;28;20419;-76
2022/04/08 08:35:59;;;;;;;12.32;3.85;;;;;;;;;;4956183;28;20264;-76
2022/04/08 08:38:25;;;;;;;8.90;3.88;;;;;;;;;;4956116;28;20256;-76
2022/04/08 08:40:51;;;;;;;5.83;4.10;;;;;;;;;;4955896;28;20280;-77
2022/04/08 08:43:17;;;;;;;9.02;3.47;;;;;;;;;;4956273;28;20426;-77
2022/04/08 08:45:45;;;;;;;12.00;4.78;;;;;;;;;;4956450;28;20181;-76
2022/04/08 08:48:14;;;;;;;6.78;3.83;;;;;;;;;;4955950;28;20226;-76
2022/04/08 08:50:40;;;;;;;4.38;3.55;;;;;;;;;;4955605;28;20242;-76
2022/04/08 08:53:07;;;;;;;4.78;3.30;;;;;;;;;;4956016;28;20181;-76
2022/04/08 08:55:33;;;;;;;4.15;3.75;;;;;;;;;;4956172;28;20181;-76
2022/04/08 08:57:58;;;;;;;4.43;3.63;;;;;;;;;;4956217;28;20181;-75
2022/04/08 09:00:25;;;;;;;7.00;3.50;;;;;;;;;;4955371;28;20511;-76
2022/04/08 09:02:51;;;;;;;9.50;4.00;;;;;;;;;;4955621;28;20811;-76
2022/04/08 09:05:19;;;;;;;9.00;4.00;;;;;;;;;;4954614;28;20241;-76
2022/04/08 09:08:01;;;;;;;4.28;3.30;;;;;;;;;;4955047;28;20189;-77
2022/04/08 09:10:37;;;;;;;5.97;3.30;;;;;;;;;;4955511;28;20650;-76
2022/04/08 09:13:05;;;;;;;5.78;3.40;;;;;;;;;;4956470;28;20171;-76
2022/04/08 09:15:33;;;;;;;7.00;3.47;;;;;;;;;;4956095;28;20177;-77
2022/04/08 09:18:13;;;;;;;5.60;3.63;;;;;;;;;;4952842;29;20514;-76
2022/04/08 09:20:46;;;;;;;4.32;3.60;;;;;;;;;;4954595;28;20196;-76
2022/04/08 09:23:13;;;;;;;5.72;3.83;;;;;;;;;;4955442;28;20248;-75
2022/04/08 09:25:40;;;;;;;5.75;3.92;;;;;;;;;;4955428;28;20174;-76
2022/04/08 09:28:07;;;;;;;4.68;3.45;;;;;;;;;;4955278;28;20229;-75
2022/04/08 09:30:33;;;;;;;8.20;3.88;;;;;;;;;;4954844;28;20188;-77
2022/04/08 09:32:59;;;;;;;7.27;3.30;;;;;;;;;;4970105;28;20205;-75
2022/04/08 09:35:25;;;;;;;10.50;3.80;;;;;;;;;;4955363;28;20413;-76
2022/04/08 09:37:58;;;;;;;6.18;3.15;;;;;;;;;;4955381;28;20587;-76
2022/04/08 09:40:25;;;;;;;6.75;3.25;;;;;;;;;;4955016;28;20173;-76
2022/04/08 09:42:50;;;;;;;5.00;2.95;;;;;;;;;;4955199;28;20200;-77
2022/04/08 09:45:27;;;;;;;3.90;3.20;;;;;;;;;;4955211;28;20692;-75
2022/04/08 09:47:53;;;;;;;3.35;3.00;;;;;;;;;;4955243;28;20408;-76
2022/04/08 09:50:19;;;;;;;5.80;3.10;;;;;;;;;;4954736;28;20181;-76
2022/04/08 09:52:46;;;;;;;3.72;2.88;;;;;;;;;;4954925;28;20219;-76
2022/04/08 09:55:12;;;;;;;6.00;2.97;;;;;;;;;;4955440;28;20212;-76
2022/04/08 09:57:39;;;;;;;4.47;2.70;;;;;;;;;;4969593;28;20525;-75
2022/04/08 10:00:06;;;;;;;3.85;2.45;;;;;;;;;;4954363;28;20448;-76
2022/04/08 10:02:33;;;;;;;10.07;3.38;;;;;;;;;;4954430;28;20200;-76
2022/04/08 10:04:59;;;;;;;5.03;3.00;;;;;;;;;;4955104;28;20181;-75
2022/04/08 10:07:26;;;;;;;7.82;3.40;;;;;;;;;;4954896;28;20189;-75
2022/04/08 10:10:00;;;;;;;4.38;2.58;;;;;;;;;;4954675;28;20308;-76
2022/04/08 10:12:41;;;;;;;4.72;2.65;;;;;;;;;;4954475;28;20226;-76
2022/04/08 10:15:14;;;;;;;5.47;2.95;;;;;;;;;;4954900;28;20251;-75
2022/04/08 10:17:40;;;;;;;5.85;3.10;;;;;;;;;;4954889;28;20181;-75
2022/04/08 10:20:20;;;;;;;5.00;2.90;;;;;;;;;;4957229;28;20268;-76
2022/04/08 10:22:46;;;;;;;3.20;2.60;;;;;;;;;;4958246;28;20952;-76
2022/04/08 10:25:16;;;;;;;6.88;3.55;;;;;;;;;;4958047;28;20240;-77
2022/04/08 10:27:43;;;;;;;4.65;2.83;;;;;;;;;;4958528;28;20195;-76
2022/04/08 10:30:20;;;;;;;5.00;3.47;;;;;;;;;;4957777;28;20744;-76
2022/04/08 10:32:47;;;;;;;6.50;3.80;;;;;;;;;;4958306;28;20203;-77
2022/04/08 10:35:20;;;;;;;9.93;3.70;;;;;;;;;;4958359;28;20212;-76
2022/04/08 10:37:57;;;;;;;8.10;3.88;;;;;;;;;;4958787;28;20180;-76
2022/04/08 10:40:29;;;;;;;3.90;3.30;;;;;;;;;;4958071;28;20210;-75
2022/04/08 10:43:02;;;;;;;11.15;3.50;;;;;;;;;;4958191;28;20197;-76
2022/04/08 10:45:29;;;;;;;6.95;4.28;;;;;;;;;;4958632;28;20177;-75
2022/04/08 10:47:58;;;;;;;4.78;3.00;;;;;;;;;;4957919;28;20173;-76
2022/04/08 10:50:27;;;;;;;5.53;3.30;;;;;;;;;;4958543;28;20177;-76
2022/04/08 10:53:03;;;;;;;7.38;3.50;;;;;;;;;;4958357;28;20213;-76
2022/04/08 10:55:29;;;;;;;5.22;3.78;;;;;;;;;;4957975;28;20204;-76
2022/04/08 10:57:57;;;;;;;7.30;3.43;;;;;;;;;;4958724;28;20611;-76
2022/04/08 11:00:25;;;;;;;7.70;3.33;;;;;;;;;;4957700;28;20844;-76
2022/04/08 11:02:53;;;;;;;4.00;3.28;;;;;;;;;;4957582;28;20197;-76
2022/04/08 11:05:20;;;;;;;4.93;3.35;;;;;;;;;;4957572;28;20300;-77
2022/04/08 11:07:47;;;;;;;8.55;4.30;;;;;;;;;;4957892;28;20177;-76
2022/04/08 11:10:15;;;;;;;3.83;3.10;;;;;;;;;;4957720;28;20219;-75
2022/04/08 11:12:51;;;;;;;7.57;3.10;;;;;;;;;;4957749;28;20197;-75
2022/04/08 11:15:23;;;;;;;4.18;3.15;;;;;;;;;;4957674;28;20184;-76
2022/04/08 11:17:50;;;;;;;4.95;3.55;;;;;;;;;;4957083;28;20192;-75
2022/04/08 11:20:17;;;;;;;5.15;3.70;;;;;;;;;;4957357;28;20177;-76
2022/04/08 11:22:44;;;;;;;6.47;3.38;;;;;;;;;;4957452;28;20201;-76
2022/04/08 11:25:10;;;;;;;8.57;3.92;;;;;;;;;;4957494;28;20187;-76
2022/04/08 11:27:37;;;;;;;14.25;3.70;;;;;;;;;;4972708;28;20186;-76
2022/04/08 11:30:12;;;;;;;11.27;3.55;;;;;;;;;;4957352;28;20720;-75
2022/04/08 11:32:39;;;;;;;7.03;4.30;;;;;;;;;;4957684;28;20631;-76
2022/04/08 11:35:12;;;;;;;5.30;3.83;;;;;;;;;;4957655;28;20234;-75
2022/04/08 11:37:37;;;;;;;4.50;3.70;;;;;;;;;;4957359;28;20183;-78
2022/04/08 11:40:04;;;;;;;4.90;3.73;;;;;;;;;;4957641;28;20197;-78
2022/04/08 11:42:30;;;;;;;4.25;3.85;;;;;;;;;;4957763;28;20428;-76
2022/04/08 11:44:57;;;;;;;7.55;4.45;;;;;;;;;;4972731;28;20279;-76
2022/04/08 11:47:31;;;;;;;7.43;4.10;;;;;;;;;;4957514;28;20185;-76
2022/04/08 11:50:04;;;;;;;8.50;4.20;;;;;;;;;;4957388;28;20295;-75
2022/04/08 11:52:30;;;;;;;8.48;4.15;;;;;;;;;;4957101;28;20212;-75
2022/04/08 11:55:02;;;;;;;10.07;4.22;;;;;;;;;;4957243;28;20230;-76
2022/04/08 11:57:32;;;;;;;7.30;3.92;;;;;;;;;;4957042;28;20181;-77
2022/04/08 11:59:58;;;;;;;7.45;3.95;;;;;;;;;;4956904;28;20181;-76
2022/04/08 12:02:24;;;;;;;6.03;3.70;;;;;;;;;;4956776;28;20267;-76
2022/04/08 12:04:50;;;;;;;6.85;4.00;;;;;;;;;;4957029;28;20665;-76
2022/04/08 12:07:23;;;;;;;5.57;4.10;;;;;;;;;;4957109;28;20578;-76
2022/04/08 12:09:50;;;;;;;10.68;4.97;;;;;;;;;;4956505;28;20304;-76
2022/04/08 12:12:22;;;;;;;8.48;4.00;;;;;;;;;;4955101;28;20348;-77
2022/04/08 12:14:48;;;;;;;9.73;4.50;;;;;;;;;;4956797;28;20172;-77
2022/04/08 12:17:14;;;;;;;10.80;4.70;;;;;;;;;;4956777;28;20177;-75
2022/04/08 12:19:41;;;;;;;11.45;4.22;;;;;;;;;;4956574;28;20408;-76
2022/04/08 12:22:14;;;;;;;8.27;4.30;;;;;;;;;;4956115;28;20600;-76
2022/04/08 12:24:43;;;;;;;11.60;5.07;;;;;;;;;;4956639;28;20189;-77
2022/04/08 12:27:13;;;;;;;8.52;4.57;;;;;;;;;;4956374;28;20179;-76
2022/04/08 12:29:40;;;;;;;9.45;4.30;;;;;;;;;;4956244;28;20228;-77
2022/04/08 12:32:12;;;;;;;5.00;3.80;;;;;;;;;;4955972;28;20612;-76
2022/04/08 12:34:38;;;;;;;4.43;3.33;;;;;;;;;;4956321;28;20173;-75
2022/04/08 12:37:04;;;;;;;6.07;3.40;;;;;;;;;;4971173;28;20185;-76
2022/04/08 12:39:30;;;;;;;6.20;3.40;;;;;;;;;;4971090;28;20464;-77
2022/04/08 12:41:59;;;;;;;7.13;3.00;;;;;;;;;;4954996;28;20806;-77
2022/04/08 12:44:25;;;;;;;10.57;4.35;;;;;;;;;;4956110;28;20497;-76
2022/04/08 12:46:52;;;;;;;6.00;3.72;;;;;;;;;;4956087;28;20648;-77
2022/04/08 12:49:18;;;;;;;4.03;2.60;;;;;;;;;;4956326;28;20253;-76
2022/04/08 12:51:44;;;;;;;4.18;2.63;;;;;;;;;;4955421;28;20221;-77
2022/04/08 12:54:11;;;;;;;6.53;2.83;;;;;;;;;;4956029;28;20269;-75
2022/04/08 12:56:37;;;;;;;4.07;3.60;;;;;;;;;;4956058;28;20205;-74
2022/04/08 12:59:03;;;;;;;6.50;3.47;;;;;;;;;;4955940;28;20245;-75
2022/04/08 13:01:30;;;;;;;4.77;2.70;;;;;;;;;;4954995;28;20219;-76
2022/04/08 13:03:56;;;;;;;7.18;2.83;;;;;;;;;;4955259;28;20413;-75
2022/04/08 13:06:22;;;;;;;3.80;2.80;;;;;;;;;;4955422;28;20200;-76
2022/04/08 13:08:48;;;;;;;8.80;2.42;;;;;;;;;;4955564;28;20201;-76
2022/04/08 13:11:14;;;;;;;5.00;2.90;;;;;;;;;;4955296;28;20335;-76
2022/04/08 13:13:40;;;;;;;5.80;2.70;;;;;;;;;;4955525;28;20814;-76
2022/04/08 13:16:06;;;;;;;2.92;2.10;;;;;;;;;;4955576;28;20408;-76
2022/04/08 13:18:32;;;;;;;4.60;2.80;;;;;;;;;;4955635;28;20181;-76
2022/04/08 13:20:58;;;;;;;7.45;2.40;;;;;;;;;;4955279;28;20208;-76
2022/04/08 13:23:24;;;;;;;10.23;2.25;;;;;;;;;;4955470;28;20219;-76
2022/04/08 13:25:50;;;;;;;3.95;1.92;;;;;;;;;;4955397;28;20654;-75
2022/04/08 13:28:16;;;;;;;3.60;1.77;;;;;;;;;;4955187;28;20231;-77
2022/04/08 13:30:43;;;;;;;3.87;1.80;;;;;;;;;;4954962;28;20259;-76
2022/04/08 13:33:09;;;;;;;5.63;2.75;;;;;;;;;;4970148;28;20476;-75
2022/04/08 13:35:36;;;;;;;7.07;2.33;;;;;;;;;;4955358;28;20173;-75
2022/04/08 13:38:02;;;;;;;2.33;1.65;;;;;;;;;;4955174;28;20268;-77
2022/04/08 13:40:28;;;;;;;7.18;2.60;;;;;;;;;;4954582;28;20196;-76
2022/04/08 13:43:00;;;;;;;5.93;2.35;;;;;;;;;;4955360;28;20338;-76
2022/04/08 13:45:26;;;;;;;4.15;2.15;;;;;;;;;;4955422;28;20235;-77
2022/04/08 13:47:52;;;;;;;3.75;1.95;;;;;;;;;;4955370;28;20177;-76
2022/04/08 13:50:18;;;;;;;4.07;1.70;;;;;;;;;;4969476;28;20271;-77
2022/04/08 13:52:44;;;;;;;3.80;2.03;;;;;;;;;;4954787;28;20998;-76
2022/04/08 13:55:10;;;;;;;5.67;2.07;;;;;;;;;;4955013;28;20271;-76
2022/04/08 13:57:36;;;;;;;3.22;2.08;;;;;;;;;;4955125;28;20488;-76
2022/04/08 14:00:02;;;;;;;3.33;1.90;;;;;;;;;;4955026;28;20232;-75
2022/04/08 14:02:28;;;;;;;5.40;2.00;;;;;;;;;;4953537;28;20212;-75
2022/04/08 14:04:54;;;;;;;8.15;2.53;;;;;;;;;;4954614;28;20276;-77
2022/04/08 14:07:20;;;;;;;3.83;1.83;;;;;;;;;;4955144;28;20316;-76
2022/04/08 14:09:46;;;;;;;2.93;1.73;;;;;;;;;;4954964;28;20815;-77
2022/04/08 14:12:13;;;;;;;3.13;1.83;;;;;;;;;;4954632;28;20421;-75
2022/04/08 14:14:40;;;;;;;4.60;2.55;;;;;;;;;;4954265;28;20428;-76
2022/04/08 14:17:06;;;;;;;5.30;2.00;;;;;;;;;;4954805;28;20169;-76
2022/04/08 14:19:33;;;;;;;4.10;2.83;;;;;;;;;;4954933;28;20191;-75
2022/04/08 14:21:59;;;;;;;4.40;1.70;;;;;;;;;;4954191;28;20444;-76
2022/04/08 14:24:26;;;;;;;7.88;2.58;;;;;;;;;;4969028;28;20187;-75
2022/04/08 14:26:52;;;;;;;4.40;2.17;;;;;;;;;;4970595;28;20327;-76
2022/04/08 14:29:18;;;;;;;2.00;1.65;;;;;;;;;;4961621;28;20213;-76
2022/04/08 14:31:44;;;;;;;4.88;2.33;;;;;;;;;;4954358;28;20204;-76
2022/04/08 14:34:10;;;;;;;5.00;2.65;;;;;;;;;;4954170;28;20259;-76
2022/04/08 14:36:39;;;;;;;3.38;2.33;;;;;;;;;;4954282;28;20189;-75
2022/04/08 14:39:06;;;;;;;6.07;2.03;;;;;;;;;;4954699;28;20185;-77
2022/04/08 14:41:32;;;;;;;4.07;2.45;;;;;;;;;;4954610;28;20639;-77
2022/04/08 14:44:00;;;;;;;4.38;2.40;;;;;;;;;;4954691;28;20653;-77